sensor_id;sensor_type;location;lat;lon;timestamp;temperature;humidity
4564;DHT22;2294;51.818;8.484;2022-10-16T00:00:47;14.10;99.90
4564;DHT22;2294;51.818;8.484;2022-10-16T00:03:14;14.10;99.90
4564;DHT22;2294;51.818;8.484;2022-10-16T00:05:42;14.10;99.90
4564;DHT22;2294;51.818;8.484;2022-10-16T00:08:11;14.00;99.90
4564;DHT22;2294;51.818;8.484;2022-10-16T00:10:39;14.00;99.90
4564;DHT22;2294;51.818;8.484;2022-10-16T00:13:07;14.00;99.90
4564;DHT22;2294;51.818;8.484;2022-10-16T00:15:36;14.00;99.90
4564;DHT22;2294;51.818;8.484;2022-10-16T00:18:05;13.90;99.90
4564;DHT22;2294;51.818;8.484;2022-10-16T00:20:33;13.90;99.90
4564;DHT22;2294;51.818;8.484;2022-10-16T00:23:02;13.90;99.90
4564;DHT22;2294;51.818;8.484;2022-10-16T00:25:31;13.90;99.90
4564;DHT22;2294;51.818;8.484;2022-10-16T00:27:59;14.00;99.90
4564;DHT22;2294;51.818;8.484;2022-10-16T00:30:26;14.10;99.90
4564;DHT22;2294;51.818;8.484;2022-10-16T00:32:54;14.00;99.90
4564;DHT22;2294;51.818;8.484;2022-10-16T00:35:21;13.90;99.90
4564;DHT22;2294;51.818;8.484;2022-10-16T00:37:48;13.90;99.90
4564;DHT22;2294;51.818;8.484;2022-10-16T00:40:15;13.90;99.90
4564;DHT22;2294;51.818;8.484;2022-10-16T00:42:44;13.80;99.90
4564;DHT22;2294;51.818;8.484;2022-10-16T00:45:11;13.80;99.90
4564;DHT22;2294;51.818;8.484;2022-10-16T00:47:40;13.80;99.90
4564;DHT22;2294;51.818;8.484;2022-10-16T00:50:10;13.70;99.90
4564;DHT22;2294;51.818;8.484;2022-10-16T00:52:42;13.70;99.90
4564;DHT22;2294;51.818;8.484;2022-10-16T00:55:10;13.60;99.90
4564;DHT22;2294;51.818;8.484;2022-10-16T00:57:38;13.60;99.90
4564;DHT22;2294;51.818;8.484;2022-10-16T01:00:10;13.50;99.90
4564;DHT22;2294;51.818;8.484;2022-10-16T01:02:37;13.50;99.90
4564;DHT22;2294;51.818;8.484;2022-10-16T01:05:05;13.50;99.90
4564;DHT22;2294;51.818;8.484;2022-10-16T01:07:39;13.40;99.90
4564;DHT22;2294;51.818;8.484;2022-10-16T01:10:17;13.40;99.90
4564;DHT22;2294;51.818;8.484;2022-10-16T01:12:51;13.40;99.90
4564;DHT22;2294;51.818;8.484;2022-10-16T01:15:26;13.40;99.90
4564;DHT22;2294;51.818;8.484;2022-10-16T01:18:00;13.30;99.90
4564;DHT22;2294;51.818;8.484;2022-10-16T01:20:30;13.30;99.90
4564;DHT22;2294;51.818;8.484;2022-10-16T01:23:09;13.30;99.90
4564;DHT22;2294;51.818;8.484;2022-10-16T01:25:47;13.30;99.90
4564;DHT22;2294;51.818;8.484;2022-10-16T01:28:22;13.20;99.90
4564;DHT22;2294;51.818;8.484;2022-10-16T01:30:55;13.20;99.90
4564;DHT22;2294;51.818;8.484;2022-10-16T01:33:29;13.20;99.90
4564;DHT22;2294;51.818;8.484;2022-10-16T01:36:00;13.20;99.90
4564;DHT22;2294;51.818;8.484;2022-10-16T01:38:33;13.10;99.90
4564;DHT22;2294;51.818;8.484;2022-10-16T01:41:05;13.10;99.90
4564;DHT22;2294;51.818;8.484;2022-10-16T01:43:37;13.10;99.90
4564;DHT22;2294;51.818;8.484;2022-10-16T01:46:05;13.10;99.90
4564;DHT22;2294;51.818;8.484;2022-10-16T01:48:34;13.00;99.90
4564;DHT22;2294;51.818;8.484;2022-10-16T01:51:06;13.00;99.90
4564;DHT22;2294;51.818;8.484;2022-10-16T01:53:36;13.00;99.90
4564;DHT22;2294;51.818;8.484;2022-10-16T01:56:08;12.90;99.90
4564;DHT22;2294;51.818;8.484;2022-10-16T01:58:40;12.80;99.90
4564;DHT22;2294;51.818;8.484;2022-10-16T02:01:10;12.80;99.90
4564;DHT22;2294;51.818;8.484;2022-10-16T02:03:40;12.80;99.90
4564;DHT22;2294;51.818;8.484;2022-10-16T02:06:09;12.80;99.90
4564;DHT22;2294;51.818;8.484;2022-10-16T02:08:36;12.70;99.90
4564;DHT22;2294;51.818;8.484;2022-10-16T02:11:04;12.70;99.90
4564;DHT22;2294;51.818;8.484;2022-10-16T02:13:35;12.70;99.90
4564;DHT22;2294;51.818;8.484;2022-10-16T02:16:06;12.70;99.90
4564;DHT22;2294;51.818;8.484;2022-10-16T02:18:33;12.70;99.90
4564;DHT22;2294;51.818;8.484;2022-10-16T02:21:04;12.70;99.90
4564;DHT22;2294;51.818;8.484;2022-10-16T02:23:38;12.70;99.90
4564;DHT22;2294;51.818;8.484;2022-10-16T02:26:09;12.70;99.90
4564;DHT22;2294;51.818;8.484;2022-10-16T02:28:42;12.80;99.90
4564;DHT22;2294;51.818;8.484;2022-10-16T02:31:13;12.80;99.90
4564;DHT22;2294;51.818;8.484;2022-10-16T02:33:44;12.90;99.90
4564;DHT22;2294;51.818;8.484;2022-10-16T02:36:12;13.00;99.90
4564;DHT22;2294;51.818;8.484;2022-10-16T02:38:40;13.10;99.90
4564;DHT22;2294;51.818;8.484;2022-10-16T02:41:07;13.30;99.90
4564;DHT22;2294;51.818;8.484;2022-10-16T02:43:34;13.30;99.90
4564;DHT22;2294;51.818;8.484;2022-10-16T02:46:01;13.40;99.90
4564;DHT22;2294;51.818;8.484;2022-10-16T02:48:29;13.30;99.90
4564;DHT22;2294;51.818;8.484;2022-10-16T02:50:56;13.20;99.90
4564;DHT22;2294;51.818;8.484;2022-10-16T02:53:23;13.20;99.90
4564;DHT22;2294;51.818;8.484;2022-10-16T02:55:50;13.20;99.90
4564;DHT22;2294;51.818;8.484;2022-10-16T02:58:17;13.20;99.90
4564;DHT22;2294;51.818;8.484;2022-10-16T03:00:44;13.20;99.90
4564;DHT22;2294;51.818;8.484;2022-10-16T03:03:11;13.20;99.90
4564;DHT22;2294;51.818;8.484;2022-10-16T03:05:39;13.20;99.90
4564;DHT22;2294;51.818;8.484;2022-10-16T03:08:06;13.20;99.90
4564;DHT22;2294;51.818;8.484;2022-10-16T03:10:33;13.30;99.90
4564;DHT22;2294;51.818;8.484;2022-10-16T03:13:00;13.40;99.90
4564;DHT22;2294;51.818;8.484;2022-10-16T03:15:27;13.50;99.90
4564;DHT22;2294;51.818;8.484;2022-10-16T03:17:54;13.50;99.90
4564;DHT22;2294;51.818;8.484;2022-10-16T03:20:21;13.40;99.90
4564;DHT22;2294;51.818;8.484;2022-10-16T03:22:49;13.40;99.90
4564;DHT22;2294;51.818;8.484;2022-10-16T03:25:16;13.30;99.90
4564;DHT22;2294;51.818;8.484;2022-10-16T03:27:43;13.30;99.90
4564;DHT22;2294;51.818;8.484;2022-10-16T03:30:10;13.20;99.90
4564;DHT22;2294;51.818;8.484;2022-10-16T03:32:37;13.20;99.90
4564;DHT22;2294;51.818;8.484;2022-10-16T03:35:05;13.10;99.90
4564;DHT22;2294;51.818;8.484;2022-10-16T03:37:32;13.10;99.90
4564;DHT22;2294;51.818;8.484;2022-10-16T03:40:00;13.30;99.90
4564;DHT22;2294;51.818;8.484;2022-10-16T03:42:27;13.30;99.90
4564;DHT22;2294;51.818;8.484;2022-10-16T03:44:54;13.20;99.90
4564;DHT22;2294;51.818;8.484;2022-10-16T03:47:21;13.20;99.90
4564;DHT22;2294;51.818;8.484;2022-10-16T03:49:49;13.30;99.90
4564;DHT22;2294;51.818;8.484;2022-10-16T03:52:16;13.50;99.90
4564;DHT22;2294;51.818;8.484;2022-10-16T03:54:43;13.60;99.90
4564;DHT22;2294;51.818;8.484;2022-10-16T03:57:11;13.60;99.90
4564;DHT22;2294;51.818;8.484;2022-10-16T03:59:38;13.60;99.90
4564;DHT22;2294;51.818;8.484;2022-10-16T04:02:05;13.70;99.90
4564;DHT22;2294;51.818;8.484;2022-10-16T04:04:32;13.70;99.90
4564;DHT22;2294;51.818;8.484;2022-10-16T04:06:59;13.70;99.90
4564;DHT22;2294;51.818;8.484;2022-10-16T04:09:25;13.70;99.90
4564;DHT22;2294;51.818;8.484;2022-10-16T04:11:52;13.70;99.90
4564;DHT22;2294;51.818;8.484;2022-10-16T04:14:20;13.70;99.90
4564;DHT22;2294;51.818;8.484;2022-10-16T04:16:47;13.80;99.90
4564;DHT22;2294;51.818;8.484;2022-10-16T04:19:14;13.70;99.90
4564;DHT22;2294;51.818;8.484;2022-10-16T04:21:41;13.70;99.90
4564;DHT22;2294;51.818;8.484;2022-10-16T04:24:08;13.70;99.90
4564;DHT22;2294;51.818;8.484;2022-10-16T04:26:37;13.70;99.90
4564;DHT22;2294;51.818;8.484;2022-10-16T04:29:04;13.90;99.90
4564;DHT22;2294;51.818;8.484;2022-10-16T04:31:33;13.90;99.90
4564;DHT22;2294;51.818;8.484;2022-10-16T04:34:00;14.00;99.90
4564;DHT22;2294;51.818;8.484;2022-10-16T04:36:27;14.00;99.90
4564;DHT22;2294;51.818;8.484;2022-10-16T04:38:54;14.10;99.90
4564;DHT22;2294;51.818;8.484;2022-10-16T04:41:21;14.10;99.90
4564;DHT22;2294;51.818;8.484;2022-10-16T04:43:47;14.00;99.90
4564;DHT22;2294;51.818;8.484;2022-10-16T04:46:14;13.90;99.90
4564;DHT22;2294;51.818;8.484;2022-10-16T04:48:42;13.80;99.90
4564;DHT22;2294;51.818;8.484;2022-10-16T04:51:09;13.70;99.90
4564;DHT22;2294;51.818;8.484;2022-10-16T04:53:36;13.70;99.90
4564;DHT22;2294;51.818;8.484;2022-10-16T04:56:03;13.50;99.90
4564;DHT22;2294;51.818;8.484;2022-10-16T04:58:30;13.60;99.90
4564;DHT22;2294;51.818;8.484;2022-10-16T05:00:57;13.60;99.90
4564;DHT22;2294;51.818;8.484;2022-10-16T05:03:24;13.50;99.90
4564;DHT22;2294;51.818;8.484;2022-10-16T05:05:52;13.40;99.90
4564;DHT22;2294;51.818;8.484;2022-10-16T05:08:19;13.40;99.90
4564;DHT22;2294;51.818;8.484;2022-10-16T05:10:46;13.30;99.90
4564;DHT22;2294;51.818;8.484;2022-10-16T05:13:13;13.20;99.90
4564;DHT22;2294;51.818;8.484;2022-10-16T05:15:40;13.40;99.90
4564;DHT22;2294;51.818;8.484;2022-10-16T05:18:08;13.40;99.90
4564;DHT22;2294;51.818;8.484;2022-10-16T05:20:35;13.40;99.90
4564;DHT22;2294;51.818;8.484;2022-10-16T05:23:03;13.50;99.90
4564;DHT22;2294;51.818;8.484;2022-10-16T05:25:30;13.50;99.90
4564;DHT22;2294;51.818;8.484;2022-10-16T05:27:57;13.40;99.90
4564;DHT22;2294;51.818;8.484;2022-10-16T05:30:23;13.40;99.90
4564;DHT22;2294;51.818;8.484;2022-10-16T05:32:51;13.50;99.90
4564;DHT22;2294;51.818;8.484;2022-10-16T05:35:18;13.50;99.90
4564;DHT22;2294;51.818;8.484;2022-10-16T05:37:45;13.50;99.90
4564;DHT22;2294;51.818;8.484;2022-10-16T05:40:14;13.50;99.90
4564;DHT22;2294;51.818;8.484;2022-10-16T05:42:41;13.60;99.90
4564;DHT22;2294;51.818;8.484;2022-10-16T05:45:10;13.60;99.90
4564;DHT22;2294;51.818;8.484;2022-10-16T05:47:37;13.60;99.90
4564;DHT22;2294;51.818;8.484;2022-10-16T05:50:04;13.50;99.90
4564;DHT22;2294;51.818;8.484;2022-10-16T05:52:31;13.50;99.90
4564;DHT22;2294;51.818;8.484;2022-10-16T05:54:58;13.50;99.90
4564;DHT22;2294;51.818;8.484;2022-10-16T05:57:26;13.40;99.90
4564;DHT22;2294;51.818;8.484;2022-10-16T05:59:53;13.50;99.90
4564;DHT22;2294;51.818;8.484;2022-10-16T06:02:20;13.60;99.90
4564;DHT22;2294;51.818;8.484;2022-10-16T06:04:47;13.60;99.90
4564;DHT22;2294;51.818;8.484;2022-10-16T06:07:14;13.60;99.90
4564;DHT22;2294;51.818;8.484;2022-10-16T06:09:41;13.70;99.90
4564;DHT22;2294;51.818;8.484;2022-10-16T06:12:08;13.70;99.90
4564;DHT22;2294;51.818;8.484;2022-10-16T06:14:36;13.70;99.90
4564;DHT22;2294;51.818;8.484;2022-10-16T06:17:03;13.80;99.90
4564;DHT22;2294;51.818;8.484;2022-10-16T06:19:30;13.90;99.90
4564;DHT22;2294;51.818;8.484;2022-10-16T06:21:57;13.90;99.90
4564;DHT22;2294;51.818;8.484;2022-10-16T06:24:24;13.90;99.90
4564;DHT22;2294;51.818;8.484;2022-10-16T06:26:51;13.90;99.90
4564;DHT22;2294;51.818;8.484;2022-10-16T06:29:18;14.00;99.90
4564;DHT22;2294;51.818;8.484;2022-10-16T06:31:46;14.00;99.90
4564;DHT22;2294;51.818;8.484;2022-10-16T06:34:13;13.90;99.90
4564;DHT22;2294;51.818;8.484;2022-10-16T06:36:40;14.00;99.90
4564;DHT22;2294;51.818;8.484;2022-10-16T06:39:08;14.00;99.90
4564;DHT22;2294;51.818;8.484;2022-10-16T06:41:36;14.00;99.90
4564;DHT22;2294;51.818;8.484;2022-10-16T06:44:05;14.20;99.90
4564;DHT22;2294;51.818;8.484;2022-10-16T06:46:32;14.30;99.90
4564;DHT22;2294;51.818;8.484;2022-10-16T06:49:00;14.40;99.90
4564;DHT22;2294;51.818;8.484;2022-10-16T06:51:27;14.40;99.90
4564;DHT22;2294;51.818;8.484;2022-10-16T06:53:55;14.30;99.90
4564;DHT22;2294;51.818;8.484;2022-10-16T06:56:24;14.40;99.90
4564;DHT22;2294;51.818;8.484;2022-10-16T06:58:53;14.40;99.90
4564;DHT22;2294;51.818;8.484;2022-10-16T07:01:21;14.50;99.90
4564;DHT22;2294;51.818;8.484;2022-10-16T07:03:50;14.50;99.90
4564;DHT22;2294;51.818;8.484;2022-10-16T07:06:20;14.50;99.90
4564;DHT22;2294;51.818;8.484;2022-10-16T07:08:48;14.50;99.90
4564;DHT22;2294;51.818;8.484;2022-10-16T07:11:16;14.50;99.90
4564;DHT22;2294;51.818;8.484;2022-10-16T07:13:45;14.50;99.90
4564;DHT22;2294;51.818;8.484;2022-10-16T07:16:13;14.40;99.90
4564;DHT22;2294;51.818;8.484;2022-10-16T07:18:41;14.40;99.90
4564;DHT22;2294;51.818;8.484;2022-10-16T07:21:11;14.50;99.90
4564;DHT22;2294;51.818;8.484;2022-10-16T07:23:40;14.50;99.90
4564;DHT22;2294;51.818;8.484;2022-10-16T07:26:07;14.60;99.90
4564;DHT22;2294;51.818;8.484;2022-10-16T07:28:35;14.70;99.90
4564;DHT22;2294;51.818;8.484;2022-10-16T07:31:02;14.80;99.90
4564;DHT22;2294;51.818;8.484;2022-10-16T07:33:30;14.80;99.90
4564;DHT22;2294;51.818;8.484;2022-10-16T07:35:57;14.90;99.90
4564;DHT22;2294;51.818;8.484;2022-10-16T07:38:23;15.00;99.90
4564;DHT22;2294;51.818;8.484;2022-10-16T07:40:57;15.00;99.90
4564;DHT22;2294;51.818;8.484;2022-10-16T07:43:25;15.00;99.90
4564;DHT22;2294;51.818;8.484;2022-10-16T07:45:52;15.00;99.90
4564;DHT22;2294;51.818;8.484;2022-10-16T07:48:21;15.00;99.90
4564;DHT22;2294;51.818;8.484;2022-10-16T07:50:48;15.00;99.90
4564;DHT22;2294;51.818;8.484;2022-10-16T07:53:15;15.10;99.90
4564;DHT22;2294;51.818;8.484;2022-10-16T07:55:42;15.10;99.90
4564;DHT22;2294;51.818;8.484;2022-10-16T07:58:10;15.10;99.90
4564;DHT22;2294;51.818;8.484;2022-10-16T08:00:37;15.20;99.90
4564;DHT22;2294;51.818;8.484;2022-10-16T08:03:04;15.10;99.90
4564;DHT22;2294;51.818;8.484;2022-10-16T08:05:32;15.10;99.90
4564;DHT22;2294;51.818;8.484;2022-10-16T08:08:00;15.00;99.90
4564;DHT22;2294;51.818;8.484;2022-10-16T08:10:27;14.90;99.90
4564;DHT22;2294;51.818;8.484;2022-10-16T08:12:54;15.00;99.90
4564;DHT22;2294;51.818;8.484;2022-10-16T08:15:23;14.90;99.90
4564;DHT22;2294;51.818;8.484;2022-10-16T08:18:00;15.00;99.90
4564;DHT22;2294;51.818;8.484;2022-10-16T08:20:28;15.00;99.90
4564;DHT22;2294;51.818;8.484;2022-10-16T08:22:55;14.90;99.90
4564;DHT22;2294;51.818;8.484;2022-10-16T08:25:23;14.80;99.90
4564;DHT22;2294;51.818;8.484;2022-10-16T08:27:50;15.00;99.90
4564;DHT22;2294;51.818;8.484;2022-10-16T08:30:18;15.10;99.90
4564;DHT22;2294;51.818;8.484;2022-10-16T08:32:47;15.20;99.90
4564;DHT22;2294;51.818;8.484;2022-10-16T08:35:14;15.20;99.90
4564;DHT22;2294;51.818;8.484;2022-10-16T08:37:41;15.30;99.90
4564;DHT22;2294;51.818;8.484;2022-10-16T08:40:16;15.40;99.90
4564;DHT22;2294;51.818;8.484;2022-10-16T08:42:59;15.50;99.90
4564;DHT22;2294;51.818;8.484;2022-10-16T08:45:39;15.60;99.90
4564;DHT22;2294;51.818;8.484;2022-10-16T08:48:18;15.70;99.90
4564;DHT22;2294;51.818;8.484;2022-10-16T08:50:48;15.90;99.90
4564;DHT22;2294;51.818;8.484;2022-10-16T08:53:19;16.00;99.90
4564;DHT22;2294;51.818;8.484;2022-10-16T08:55:50;16.10;99.90
4564;DHT22;2294;51.818;8.484;2022-10-16T10:28:41;17.80;99.90
4564;DHT22;2294;51.818;8.484;2022-10-16T10:31:14;18.00;99.90
4564;DHT22;2294;51.818;8.484;2022-10-16T10:33:47;18.00;99.90
4564;DHT22;2294;51.818;8.484;2022-10-16T10:36:30;18.10;99.90
4564;DHT22;2294;51.818;8.484;2022-10-16T10:40:39;18.50;99.90
4564;DHT22;2294;51.818;8.484;2022-10-16T10:43:17;18.50;99.90
4564;DHT22;2294;51.818;8.484;2022-10-16T10:45:48;18.50;99.90
4564;DHT22;2294;51.818;8.484;2022-10-16T10:48:32;18.40;99.90
4564;DHT22;2294;51.818;8.484;2022-10-16T10:51:10;18.60;99.90
4564;DHT22;2294;51.818;8.484;2022-10-16T10:53:43;18.60;99.90
4564;DHT22;2294;51.818;8.484;2022-10-16T10:56:22;18.70;99.90
4564;DHT22;2294;51.818;8.484;2022-10-16T10:59:08;18.80;99.90
4564;DHT22;2294;51.818;8.484;2022-10-16T11:01:47;18.80;99.90
4564;DHT22;2294;51.818;8.484;2022-10-16T11:04:49;18.90;99.90
4564;DHT22;2294;51.818;8.484;2022-10-16T11:07:22;18.80;99.90
4564;DHT22;2294;51.818;8.484;2022-10-16T11:09:53;19.30;99.90
4564;DHT22;2294;51.818;8.484;2022-10-16T11:12:27;19.30;99.90
4564;DHT22;2294;51.818;8.484;2022-10-16T11:15:00;18.90;99.90
4564;DHT22;2294;51.818;8.484;2022-10-16T11:17:31;19.00;99.90
4564;DHT22;2294;51.818;8.484;2022-10-16T11:20:05;19.10;99.90
4564;DHT22;2294;51.818;8.484;2022-10-16T11:22:39;19.10;99.90
4564;DHT22;2294;51.818;8.484;2022-10-16T11:25:13;19.20;99.90
4564;DHT22;2294;51.818;8.484;2022-10-16T11:27:47;19.20;99.90
4564;DHT22;2294;51.818;8.484;2022-10-16T11:30:19;19.30;99.90
4564;DHT22;2294;51.818;8.484;2022-10-16T11:32:55;19.30;99.90
4564;DHT22;2294;51.818;8.484;2022-10-16T11:35:36;19.20;99.90
4564;DHT22;2294;51.818;8.484;2022-10-16T11:38:10;19.30;99.90
4564;DHT22;2294;51.818;8.484;2022-10-16T11:40:41;19.00;99.90
4564;DHT22;2294;51.818;8.484;2022-10-16T11:43:15;19.30;99.90
4564;DHT22;2294;51.818;8.484;2022-10-16T11:45:46;19.30;99.90
4564;DHT22;2294;51.818;8.484;2022-10-16T11:48:21;18.80;99.90
4564;DHT22;2294;51.818;8.484;2022-10-16T11:50:53;18.90;99.90
4564;DHT22;2294;51.818;8.484;2022-10-16T11:53:26;18.80;99.90
4564;DHT22;2294;51.818;8.484;2022-10-16T11:55:57;19.00;99.90
4564;DHT22;2294;51.818;8.484;2022-10-16T11:58:28;19.00;99.90
4564;DHT22;2294;51.818;8.484;2022-10-16T12:01:03;19.30;99.90
4564;DHT22;2294;51.818;8.484;2022-10-16T12:03:36;19.20;99.90
4564;DHT22;2294;51.818;8.484;2022-10-16T12:06:23;19.40;99.90
4564;DHT22;2294;51.818;8.484;2022-10-16T12:08:53;19.70;99.90
4564;DHT22;2294;51.818;8.484;2022-10-16T12:11:32;19.80;99.90
4564;DHT22;2294;51.818;8.484;2022-10-16T12:14:22;19.90;99.90
4564;DHT22;2294;51.818;8.484;2022-10-16T12:16:54;19.90;99.90
4564;DHT22;2294;51.818;8.484;2022-10-16T12:19:22;19.60;99.90
4564;DHT22;2294;51.818;8.484;2022-10-16T12:21:50;19.40;99.90
4564;DHT22;2294;51.818;8.484;2022-10-16T12:24:27;19.00;99.90
4564;DHT22;2294;51.818;8.484;2022-10-16T12:26:56;18.70;99.90
4564;DHT22;2294;51.818;8.484;2022-10-16T12:29:32;18.70;99.90
4564;DHT22;2294;51.818;8.484;2022-10-16T12:31:59;18.80;99.90
4564;DHT22;2294;51.818;8.484;2022-10-16T12:34:29;19.20;99.90
4564;DHT22;2294;51.818;8.484;2022-10-16T12:37:08;19.70;99.90
4564;DHT22;2294;51.818;8.484;2022-10-16T12:39:36;19.50;99.90
4564;DHT22;2294;51.818;8.484;2022-10-16T12:42:05;19.90;99.90
4564;DHT22;2294;51.818;8.484;2022-10-16T12:44:35;20.10;99.90
4564;DHT22;2294;51.818;8.484;2022-10-16T12:47:02;20.40;99.90
4564;DHT22;2294;51.818;8.484;2022-10-16T12:49:36;20.60;99.90
4564;DHT22;2294;51.818;8.484;2022-10-16T12:52:04;20.20;99.90
4564;DHT22;2294;51.818;8.484;2022-10-16T12:54:35;20.30;99.90
4564;DHT22;2294;51.818;8.484;2022-10-16T12:57:13;20.20;99.90
4564;DHT22;2294;51.818;8.484;2022-10-16T13:03:33;19.70;99.90
4564;DHT22;2294;51.818;8.484;2022-10-16T13:06:11;20.10;99.90
4564;DHT22;2294;51.818;8.484;2022-10-16T13:08:57;20.30;99.90
4564;DHT22;2294;51.818;8.484;2022-10-16T13:11:46;20.60;99.90
4564;DHT22;2294;51.818;8.484;2022-10-16T13:14:35;20.50;99.90
4564;DHT22;2294;51.818;8.484;2022-10-16T13:17:11;20.20;99.90
4564;DHT22;2294;51.818;8.484;2022-10-16T13:19:48;19.80;99.90
4564;DHT22;2294;51.818;8.484;2022-10-16T13:22:23;20.00;99.90
4564;DHT22;2294;51.818;8.484;2022-10-16T13:25:02;19.80;99.90
4564;DHT22;2294;51.818;8.484;2022-10-16T13:27:39;19.80;99.90
4564;DHT22;2294;51.818;8.484;2022-10-16T13:30:13;19.40;99.90
4564;DHT22;2294;51.818;8.484;2022-10-16T13:32:45;19.30;99.90
4564;DHT22;2294;51.818;8.484;2022-10-16T13:35:22;19.20;99.90
4564;DHT22;2294;51.818;8.484;2022-10-16T13:37:50;19.30;99.90
4564;DHT22;2294;51.818;8.484;2022-10-16T13:40:22;19.40;99.90
4564;DHT22;2294;51.818;8.484;2022-10-16T13:42:50;19.40;99.90
4564;DHT22;2294;51.818;8.484;2022-10-16T13:45:18;19.10;99.90
4564;DHT22;2294;51.818;8.484;2022-10-16T13:47:45;19.10;99.90
4564;DHT22;2294;51.818;8.484;2022-10-16T13:50:14;18.90;99.90
4564;DHT22;2294;51.818;8.484;2022-10-16T13:52:43;18.80;99.90
4564;DHT22;2294;51.818;8.484;2022-10-16T13:55:11;18.90;99.90
4564;DHT22;2294;51.818;8.484;2022-10-16T13:57:38;18.80;99.90
4564;DHT22;2294;51.818;8.484;2022-10-16T14:00:18;18.80;99.90
4564;DHT22;2294;51.818;8.484;2022-10-16T14:02:45;19.00;99.90
4564;DHT22;2294;51.818;8.484;2022-10-16T14:05:17;19.00;99.90
4564;DHT22;2294;51.818;8.484;2022-10-16T14:07:49;18.90;99.90
4564;DHT22;2294;51.818;8.484;2022-10-16T14:10:22;18.70;99.90
4564;DHT22;2294;51.818;8.484;2022-10-16T14:12:57;18.70;99.90
4564;DHT22;2294;51.818;8.484;2022-10-16T14:15:25;18.80;99.90
4564;DHT22;2294;51.818;8.484;2022-10-16T14:17:52;18.90;99.90
4564;DHT22;2294;51.818;8.484;2022-10-16T14:20:22;19.00;99.90
4564;DHT22;2294;51.818;8.484;2022-10-16T14:23:00;19.00;99.90
4564;DHT22;2294;51.818;8.484;2022-10-16T14:25:29;19.10;99.90
4564;DHT22;2294;51.818;8.484;2022-10-16T14:27:59;19.20;99.90
4564;DHT22;2294;51.818;8.484;2022-10-16T14:30:27;19.30;99.90
4564;DHT22;2294;51.818;8.484;2022-10-16T14:32:55;19.70;99.90
4564;DHT22;2294;51.818;8.484;2022-10-16T14:35:26;20.50;99.90
4564;DHT22;2294;51.818;8.484;2022-10-16T14:37:54;21.30;99.90
4564;DHT22;2294;51.818;8.484;2022-10-16T14:40:25;21.60;99.90
4564;DHT22;2294;51.818;8.484;2022-10-16T14:42:53;21.40;99.90
4564;DHT22;2294;51.818;8.484;2022-10-16T14:45:22;21.30;99.90
4564;DHT22;2294;51.818;8.484;2022-10-16T14:47:52;21.00;99.90
4564;DHT22;2294;51.818;8.484;2022-10-16T14:50:21;21.20;99.90
4564;DHT22;2294;51.818;8.484;2022-10-16T14:52:48;20.80;99.90
4564;DHT22;2294;51.818;8.484;2022-10-16T14:55:15;20.50;99.90
4564;DHT22;2294;51.818;8.484;2022-10-16T14:57:44;20.70;99.90
4564;DHT22;2294;51.818;8.484;2022-10-16T15:00:17;21.00;99.90
4564;DHT22;2294;51.818;8.484;2022-10-16T15:02:46;21.30;99.90
4564;DHT22;2294;51.818;8.484;2022-10-16T15:05:17;21.50;99.90
4564;DHT22;2294;51.818;8.484;2022-10-16T15:07:44;21.50;99.90
4564;DHT22;2294;51.818;8.484;2022-10-16T15:10:15;21.60;99.90
4564;DHT22;2294;51.818;8.484;2022-10-16T15:12:43;21.50;99.90
4564;DHT22;2294;51.818;8.484;2022-10-16T15:15:32;21.80;99.90
4564;DHT22;2294;51.818;8.484;2022-10-16T15:17:59;21.80;99.90
4564;DHT22;2294;51.818;8.484;2022-10-16T15:20:28;21.80;99.90
4564;DHT22;2294;51.818;8.484;2022-10-16T15:22:57;20.60;99.90
4564;DHT22;2294;51.818;8.484;2022-10-16T15:25:34;19.80;99.90
4564;DHT22;2294;51.818;8.484;2022-10-16T15:28:03;19.20;99.90
4564;DHT22;2294;51.818;8.484;2022-10-16T15:30:31;18.80;99.90
4564;DHT22;2294;51.818;8.484;2022-10-16T15:32:58;18.40;99.90
4564;DHT22;2294;51.818;8.484;2022-10-16T15:35:25;18.10;99.90
4564;DHT22;2294;51.818;8.484;2022-10-16T15:37:57;17.80;99.90
4564;DHT22;2294;51.818;8.484;2022-10-16T15:40:24;17.40;99.90
4564;DHT22;2294;51.818;8.484;2022-10-16T15:42:51;17.40;99.90
4564;DHT22;2294;51.818;8.484;2022-10-16T15:45:20;17.30;99.90
4564;DHT22;2294;51.818;8.484;2022-10-16T15:47:47;17.30;99.90
4564;DHT22;2294;51.818;8.484;2022-10-16T15:50:15;17.40;99.90
4564;DHT22;2294;51.818;8.484;2022-10-16T15:52:42;17.30;99.90
4564;DHT22;2294;51.818;8.484;2022-10-16T15:55:11;17.30;99.90
4564;DHT22;2294;51.818;8.484;2022-10-16T15:57:38;17.20;99.90
4564;DHT22;2294;51.818;8.484;2022-10-16T16:00:08;17.20;99.90
4564;DHT22;2294;51.818;8.484;2022-10-16T16:02:37;17.10;99.90
4564;DHT22;2294;51.818;8.484;2022-10-16T16:05:04;17.10;99.90
4564;DHT22;2294;51.818;8.484;2022-10-16T16:07:32;17.00;99.90
4564;DHT22;2294;51.818;8.484;2022-10-16T16:10:00;16.90;99.90
4564;DHT22;2294;51.818;8.484;2022-10-16T16:12:27;16.60;99.90
4564;DHT22;2294;51.818;8.484;2022-10-16T16:14:54;16.50;99.90
4564;DHT22;2294;51.818;8.484;2022-10-16T16:17:21;16.40;99.90
4564;DHT22;2294;51.818;8.484;2022-10-16T16:19:49;16.50;99.90
4564;DHT22;2294;51.818;8.484;2022-10-16T16:22:16;16.50;99.90
4564;DHT22;2294;51.818;8.484;2022-10-16T16:24:43;16.40;99.90
4564;DHT22;2294;51.818;8.484;2022-10-16T16:27:10;16.30;99.90
4564;DHT22;2294;51.818;8.484;2022-10-16T16:29:39;16.20;99.90
4564;DHT22;2294;51.818;8.484;2022-10-16T16:32:06;16.10;99.90
4564;DHT22;2294;51.818;8.484;2022-10-16T16:34:33;16.10;99.90
4564;DHT22;2294;51.818;8.484;2022-10-16T16:37:01;16.20;99.90
4564;DHT22;2294;51.818;8.484;2022-10-16T16:39:28;16.20;99.90
4564;DHT22;2294;51.818;8.484;2022-10-16T16:41:55;16.20;99.90
4564;DHT22;2294;51.818;8.484;2022-10-16T16:44:23;16.30;99.90
4564;DHT22;2294;51.818;8.484;2022-10-16T16:46:51;16.20;99.90
4564;DHT22;2294;51.818;8.484;2022-10-16T16:49:18;16.10;99.90
4564;DHT22;2294;51.818;8.484;2022-10-16T16:51:45;16.10;99.90
4564;DHT22;2294;51.818;8.484;2022-10-16T16:54:15;16.10;99.90
4564;DHT22;2294;51.818;8.484;2022-10-16T16:56:42;16.00;99.90
4564;DHT22;2294;51.818;8.484;2022-10-16T16:59:12;16.10;99.90
4564;DHT22;2294;51.818;8.484;2022-10-16T17:01:39;16.10;99.90
4564;DHT22;2294;51.818;8.484;2022-10-16T17:04:06;16.00;99.90
4564;DHT22;2294;51.818;8.484;2022-10-16T17:06:33;16.00;99.90
4564;DHT22;2294;51.818;8.484;2022-10-16T17:09:01;15.10;99.90
4564;DHT22;2294;51.818;8.484;2022-10-16T17:11:30;15.90;99.90
4564;DHT22;2294;51.818;8.484;2022-10-16T17:13:58;15.90;99.90
4564;DHT22;2294;51.818;8.484;2022-10-16T17:16:27;16.00;99.90
4564;DHT22;2294;51.818;8.484;2022-10-16T17:18:54;16.00;99.90
4564;DHT22;2294;51.818;8.484;2022-10-16T17:21:21;15.90;99.90
4564;DHT22;2294;51.818;8.484;2022-10-16T17:23:50;16.00;99.90
4564;DHT22;2294;51.818;8.484;2022-10-16T17:26:17;16.00;99.90
4564;DHT22;2294;51.818;8.484;2022-10-16T17:28:49;15.80;99.90
4564;DHT22;2294;51.818;8.484;2022-10-16T17:31:18;15.80;99.90
4564;DHT22;2294;51.818;8.484;2022-10-16T17:33:46;15.90;99.90
4564;DHT22;2294;51.818;8.484;2022-10-16T17:36:13;15.80;99.90
4564;DHT22;2294;51.818;8.484;2022-10-16T17:38:41;15.80;99.90
4564;DHT22;2294;51.818;8.484;2022-10-16T17:41:12;15.80;99.90
4564;DHT22;2294;51.818;8.484;2022-10-16T17:43:39;15.70;99.90
4564;DHT22;2294;51.818;8.484;2022-10-16T17:46:09;15.70;99.90
4564;DHT22;2294;51.818;8.484;2022-10-16T17:48:36;15.60;99.90
4564;DHT22;2294;51.818;8.484;2022-10-16T17:51:05;15.50;99.90
4564;DHT22;2294;51.818;8.484;2022-10-16T17:53:32;15.60;99.90